createdAt,value
2019-01-24T00:00:51.953Z,46.40
2019-01-24T00:01:51.978Z,43.80
2019-01-24T00:02:51.933Z,45.70
2019-01-24T00:03:51.926Z,43.70
2019-01-24T00:04:51.906Z,43.40
2019-01-24T00:05:51.897Z,43.60
2019-01-24T00:06:51.911Z,43.30
2019-01-24T00:07:51.879Z,43.00
2019-01-24T00:08:52.837Z,43.10
2019-01-24T00:09:51.858Z,43.10
2019-01-24T00:10:51.845Z,46.90
2019-01-24T00:11:51.831Z,45.90
2019-01-24T00:12:51.822Z,46.40
2019-01-24T00:13:51.837Z,45.40
2019-01-24T00:14:51.798Z,44.60
2019-01-24T00:15:51.791Z,45.60
2019-01-24T00:16:51.783Z,46.70
2019-01-24T00:17:51.766Z,43.80
2019-01-24T00:18:51.777Z,48.50
2019-01-24T00:19:51.749Z,47.90
2019-01-24T00:20:51.735Z,45.70
2019-01-24T00:21:51.726Z,46.50
2019-01-24T00:22:51.714Z,47.30
2019-01-24T00:23:51.727Z,47.20
2019-01-24T00:24:51.689Z,46.40
2019-01-24T00:25:51.677Z,46.80
2019-01-24T00:26:51.706Z,47.20
2019-01-24T00:27:51.660Z,48.70
2019-01-24T00:28:51.651Z,43.60
2019-01-24T00:29:51.670Z,46.30
2019-01-24T00:30:51.644Z,44.70
2019-01-24T00:31:51.613Z,44.30
2019-01-24T00:32:51.602Z,45.40
2019-01-24T00:33:51.594Z,48.90
2019-01-24T00:34:51.582Z,45.40
2019-01-24T00:35:51.686Z,49.70
2019-01-24T00:36:51.562Z,44.80
2019-01-24T00:37:51.546Z,46.50
2019-01-24T00:38:51.546Z,45.30
2019-01-24T00:39:51.526Z,42.20
2019-01-24T00:40:51.540Z,43.40
2019-01-24T00:41:51.509Z,44.60
2019-01-24T00:42:51.499Z,44.70
2019-01-24T00:43:51.492Z,48.50
2019-01-24T00:44:51.482Z,46.20
2019-01-24T00:45:51.485Z,46.60
2019-01-24T00:46:51.446Z,45.50
2019-01-24T00:47:51.441Z,44.50
2019-01-24T00:48:51.430Z,45.20
2019-01-24T00:49:51.449Z,46.70
2019-01-24T00:50:51.410Z,45.20
2019-01-24T00:51:51.393Z,48.80
2019-01-24T00:52:51.387Z,47.10
2019-01-24T00:53:51.376Z,46.70
2019-01-24T00:54:51.390Z,46.10
2019-01-24T00:55:51.355Z,45.10
2019-01-24T00:56:51.338Z,46.70
2019-01-24T00:57:51.336Z,45.30
2019-01-24T00:58:51.322Z,45.60
2019-01-24T00:59:51.337Z,47.90
2019-01-24T01:00:51.294Z,46.40
2019-01-24T01:01:51.287Z,46.60
2019-01-24T01:02:51.274Z,46.00
2019-01-24T01:03:51.292Z,45.60
2019-01-24T01:04:51.251Z,46.90
2019-01-24T01:05:51.239Z,44.30
2019-01-24T01:06:51.230Z,47.50
2019-01-24T01:07:51.247Z,44.40
2019-01-24T01:08:51.208Z,46.80
2019-01-24T01:09:51.228Z,47.80
2019-01-24T01:10:51.184Z,44.90
2019-01-24T01:11:51.177Z,45.90
2019-01-24T01:12:51.171Z,46.10
2019-01-24T01:13:51.156Z,48.00
2019-01-24T01:14:51.181Z,45.60
2019-01-24T01:15:51.131Z,46.40
2019-01-24T01:16:51.117Z,47.70
2019-01-24T01:17:51.111Z,46.80
2019-01-24T01:18:51.100Z,46.10
2019-01-24T01:19:51.111Z,46.10
2019-01-24T01:20:51.079Z,47.30
2019-01-24T01:21:51.064Z,45.20
2019-01-24T01:22:51.085Z,46.30
2019-01-24T01:23:51.044Z,45.20
2019-01-24T01:24:51.035Z,45.80
2019-01-24T01:25:51.023Z,47.60
2019-01-24T01:26:51.041Z,46.60
2019-01-24T01:27:51.000Z,49.50
2019-01-24T01:28:50.988Z,47.70
2019-01-24T01:29:57.679Z,44.90
2019-01-24T01:30:50.991Z,46.00
2019-01-24T01:31:50.967Z,47.10
2019-01-24T01:32:50.943Z,48.10
2019-01-24T01:33:50.933Z,46.50
2019-01-24T01:34:50.934Z,45.70
2019-01-24T01:35:50.954Z,46.50
2019-01-24T01:36:50.904Z,47.80
2019-01-24T01:37:50.890Z,45.90
2019-01-24T01:38:50.885Z,47.80
2019-01-24T01:39:50.867Z,47.30
2019-01-24T01:40:50.902Z,46.40
2019-01-24T01:41:50.846Z,46.90
2019-01-24T01:42:50.837Z,48.90
2019-01-24T01:43:50.881Z,46.40
2019-01-24T01:44:50.818Z,48.10
2019-01-24T01:45:50.838Z,47.90
2019-01-24T01:46:50.821Z,46.60
2019-01-24T01:47:50.783Z,45.30
2019-01-24T01:48:50.771Z,50.50
2019-01-24T01:49:50.767Z,48.10
2019-01-24T01:50:50.745Z,55.70
2019-01-24T01:51:50.758Z,55.00
2019-01-24T01:52:50.761Z,54.90
2019-01-24T01:53:50.714Z,57.50
2019-01-24T01:54:50.707Z,58.50
2019-01-24T01:55:50.696Z,58.50
2019-01-24T01:56:50.683Z,63.10
2019-01-24T01:57:50.699Z,61.00
2019-01-24T01:58:50.677Z,60.90
2019-01-24T01:59:50.651Z,61.80
2019-01-24T02:00:50.653Z,60.30
2019-01-24T02:01:50.657Z,60.90
2019-01-24T02:02:50.647Z,61.10
2019-01-24T02:03:50.607Z,62.10
2019-01-24T02:04:50.594Z,61.80
2019-01-24T02:05:50.588Z,65.00
2019-01-24T02:06:50.574Z,60.00
2019-01-24T02:07:50.586Z,62.30
2019-01-24T02:08:50.553Z,65.40
2019-01-24T02:09:50.544Z,60.70
2019-01-24T02:10:50.557Z,64.90
2019-01-24T02:11:50.520Z,66.20
2019-01-24T02:12:50.516Z,62.30
2019-01-24T02:13:50.507Z,66.60
2019-01-24T02:14:50.490Z,65.10
2019-01-24T02:15:50.496Z,62.40
2019-01-24T02:16:50.489Z,61.70
2019-01-24T02:17:50.453Z,64.00
2019-01-24T02:18:50.456Z,62.40
2019-01-24T02:19:50.427Z,61.10
2019-01-24T02:20:50.420Z,62.80
2019-01-24T02:21:50.451Z,64.60
2019-01-24T02:22:50.404Z,67.60
2019-01-24T02:23:50.385Z,66.10
2019-01-24T02:24:50.381Z,66.30
2019-01-24T02:25:50.370Z,64.90
2019-01-24T02:26:50.379Z,64.50
2019-01-24T02:27:50.346Z,66.40
2019-01-24T02:28:50.338Z,65.50
2019-01-24T02:29:50.329Z,65.00
2019-01-24T02:30:50.338Z,67.00
2019-01-24T02:31:50.298Z,65.80
2019-01-24T02:32:50.289Z,66.10
2019-01-24T02:33:50.302Z,66.90
2019-01-24T02:34:50.276Z,69.70
2019-01-24T02:35:50.286Z,65.60
2019-01-24T02:36:50.249Z,65.60
2019-01-24T02:37:50.234Z,68.50
2019-01-24T02:38:50.250Z,65.70
2019-01-24T02:39:50.218Z,67.30
2019-01-24T02:40:50.205Z,67.60
2019-01-24T02:41:50.198Z,67.60
2019-01-24T02:42:50.204Z,66.60
2019-01-24T02:43:50.181Z,69.00
2019-01-24T02:44:50.164Z,69.80
2019-01-24T02:45:50.147Z,64.20
2019-01-24T02:46:50.168Z,64.50
2019-01-24T02:47:50.162Z,68.70
2019-01-24T02:48:50.114Z,69.60
2019-01-24T02:49:50.112Z,66.30
2019-01-24T02:50:50.107Z,66.80
2019-01-24T02:51:50.080Z,66.80
2019-01-24T02:52:50.111Z,68.40
2019-01-24T02:53:50.070Z,67.90
2019-01-24T02:54:50.051Z,63.90
2019-01-24T02:55:50.037Z,70.80
2019-01-24T02:56:50.026Z,67.60
2019-01-24T02:57:50.129Z,68.70
2019-01-24T02:58:50.005Z,68.90
2019-01-24T02:59:49.997Z,69.70
2019-01-24T03:00:49.989Z,67.20
2019-01-24T03:01:49.975Z,65.80
2019-01-24T03:02:49.989Z,67.90
2019-01-24T03:03:49.946Z,66.20
2019-01-24T03:04:56.655Z,68.00
2019-01-24T03:05:50.949Z,67.00
2019-01-24T03:06:49.926Z,68.60
2019-01-24T03:07:49.921Z,71.50
2019-01-24T03:08:49.896Z,69.40
2019-01-24T03:09:49.883Z,69.50
2019-01-24T03:10:49.893Z,65.60
2019-01-24T03:11:49.859Z,70.70
2019-01-24T03:12:49.847Z,70.30
2019-01-24T03:13:49.841Z,67.10
2019-01-24T03:14:49.833Z,71.00
2019-01-24T03:15:49.852Z,67.90
2019-01-24T03:16:49.805Z,68.30
2019-01-24T03:17:49.800Z,71.90
2019-01-24T03:18:49.787Z,70.30
2019-01-24T03:19:49.803Z,72.30
2019-01-24T03:20:49.771Z,67.20
2019-01-24T03:21:49.752Z,70.50
2019-01-24T03:22:49.741Z,71.80
2019-01-24T03:23:49.726Z,73.50
2019-01-24T03:24:49.733Z,69.70
2019-01-24T03:25:49.706Z,69.20
2019-01-24T03:26:49.695Z,69.30
2019-01-24T03:27:49.716Z,68.70
2019-01-24T03:28:49.672Z,70.40
2019-01-24T03:29:49.723Z,67.70
2019-01-24T03:30:49.653Z,69.70
2019-01-24T03:31:49.650Z,71.30
2019-01-24T03:32:49.637Z,72.20
2019-01-24T03:33:49.645Z,64.80
2019-01-24T03:34:49.613Z,72.30
2019-01-24T03:35:49.596Z,69.90
2019-01-24T03:36:49.589Z,69.90
2019-01-24T03:37:49.583Z,71.80
2019-01-24T03:38:49.630Z,70.00
2019-01-24T03:39:49.560Z,72.00
2019-01-24T03:40:49.541Z,69.80
2019-01-24T03:41:49.528Z,76.40
2019-01-24T03:42:49.550Z,71.90
2019-01-24T03:43:49.535Z,72.70
2019-01-24T03:44:49.501Z,69.80
2019-01-24T03:45:49.521Z,75.10
2019-01-24T03:46:49.485Z,70.50
2019-01-24T03:47:49.462Z,72.50
2019-01-24T03:48:49.464Z,73.00
2019-01-24T03:49:49.447Z,69.80
2019-01-24T03:50:49.458Z,72.00
2019-01-24T03:51:49.421Z,69.70
2019-01-24T03:52:49.420Z,70.50
2019-01-24T03:53:49.403Z,73.30
2019-01-24T03:54:49.389Z,72.60
2019-01-24T03:55:49.400Z,71.30
2019-01-24T03:56:49.371Z,71.70
2019-01-24T03:57:49.355Z,76.70
2019-01-24T03:58:49.343Z,72.00
2019-01-24T03:59:49.338Z,73.90
2019-01-24T04:00:49.354Z,74.10
2019-01-24T04:01:49.314Z,73.90
2019-01-24T04:02:49.310Z,73.00
2019-01-24T04:03:49.287Z,74.20
2019-01-24T04:04:49.275Z,76.50
2019-01-24T04:05:49.295Z,75.80
2019-01-24T04:06:49.263Z,72.80
2019-01-24T04:07:49.283Z,73.60
2019-01-24T04:08:49.242Z,73.50
2019-01-24T04:09:49.227Z,76.80
2019-01-24T04:10:49.207Z,72.50
2019-01-24T04:11:49.206Z,74.00
2019-01-24T04:12:49.212Z,73.60
2019-01-24T04:13:49.175Z,74.40
2019-01-24T04:14:49.179Z,74.20
2019-01-24T04:15:49.176Z,76.40
2019-01-24T04:16:49.143Z,72.30
2019-01-24T04:17:49.169Z,73.00
2019-01-24T04:18:49.119Z,72.70
2019-01-24T04:19:49.114Z,75.20
2019-01-24T04:20:49.106Z,73.20
2019-01-24T04:21:49.118Z,75.00
2019-01-24T04:22:49.084Z,74.90
2019-01-24T04:23:49.068Z,74.70
2019-01-24T04:24:49.091Z,75.60
2019-01-24T04:25:49.047Z,75.50
2019-01-24T04:26:49.035Z,75.20
2019-01-24T04:27:49.029Z,74.60
2019-01-24T04:28:49.042Z,76.00
2019-01-24T04:29:49.001Z,69.60
2019-01-24T04:30:48.992Z,72.20
2019-01-24T04:31:48.979Z,75.60
2019-01-24T04:32:48.989Z,74.80
2019-01-24T04:33:48.971Z,77.60
2019-01-24T04:34:48.944Z,74.80
2019-01-24T04:35:48.933Z,75.30
2019-01-24T04:36:48.921Z,73.80
2019-01-24T04:37:48.936Z,76.80
2019-01-24T04:38:48.901Z,73.70
2019-01-24T04:39:48.901Z,71.80
2019-01-24T04:40:48.884Z,74.10
2019-01-24T04:41:48.877Z,77.20
2019-01-24T04:42:48.921Z,71.10
2019-01-24T04:43:48.860Z,74.50
2019-01-24T04:44:48.833Z,74.60
2019-01-24T04:45:48.827Z,73.70
2019-01-24T04:46:48.811Z,75.80
2019-01-24T04:47:48.831Z,74.40
2019-01-24T04:48:48.793Z,74.00
2019-01-24T04:49:48.780Z,71.90
2019-01-24T04:50:48.778Z,75.00
2019-01-24T04:51:48.760Z,74.20
2019-01-24T04:52:48.775Z,74.60
2019-01-24T04:53:48.736Z,75.40
2019-01-24T04:54:48.726Z,72.10
2019-01-24T04:55:48.719Z,72.80
2019-01-24T04:56:48.706Z,73.00
2019-01-24T04:57:48.732Z,74.40
2019-01-24T04:58:48.692Z,73.90
2019-01-24T04:59:48.708Z,76.10
2019-01-24T05:00:48.685Z,75.50
2019-01-24T05:01:48.656Z,73.20
2019-01-24T05:02:48.640Z,72.40
2019-01-24T05:03:48.630Z,73.70
2019-01-24T05:04:48.634Z,73.60
2019-01-24T05:05:48.611Z,78.50
2019-01-24T05:06:48.593Z,73.50
2019-01-24T05:07:48.588Z,71.60
2019-01-24T05:08:48.571Z,80.60
2019-01-24T05:09:48.597Z,74.20
2019-01-24T05:10:48.557Z,71.00
2019-01-24T05:11:48.544Z,76.90
2019-01-24T05:12:48.535Z,74.90
2019-01-24T05:13:48.517Z,72.30
2019-01-24T05:14:48.529Z,75.30
2019-01-24T05:15:48.532Z,72.70
2019-01-24T05:16:48.486Z,74.70
2019-01-24T05:17:48.482Z,73.80
2019-01-24T05:18:48.460Z,73.00
2019-01-24T05:19:48.452Z,74.60
2019-01-24T05:20:48.489Z,78.90
2019-01-24T05:21:48.444Z,71.50
2019-01-24T05:22:48.421Z,72.80
2019-01-24T05:23:48.410Z,75.70
2019-01-24T05:24:48.399Z,72.10
2019-01-24T05:25:48.421Z,78.50
2019-01-24T05:26:48.380Z,73.10
2019-01-24T05:27:48.364Z,73.30
2019-01-24T05:28:48.362Z,74.90
2019-01-24T05:29:48.347Z,75.20
2019-01-24T05:30:48.355Z,74.60
2019-01-24T05:31:48.319Z,77.60
2019-01-24T05:32:48.309Z,75.80
2019-01-24T05:33:48.332Z,71.60
2019-01-24T05:34:48.286Z,76.30
2019-01-24T05:35:48.272Z,75.90
2019-01-24T05:36:48.268Z,75.70
2019-01-24T05:37:48.287Z,72.10
2019-01-24T05:38:48.238Z,74.50
2019-01-24T05:39:48.232Z,75.70
2019-01-24T05:40:48.248Z,75.30
2019-01-24T05:41:48.208Z,74.20
2019-01-24T05:42:48.229Z,79.90
2019-01-24T05:43:48.191Z,77.70
2019-01-24T05:44:48.174Z,73.20
2019-01-24T05:45:48.189Z,72.80
2019-01-24T05:46:48.154Z,74.10
2019-01-24T05:47:48.168Z,72.60
2019-01-24T05:48:48.182Z,74.20
2019-01-24T05:49:48.127Z,73.40
2019-01-24T05:50:48.109Z,74.60
2019-01-24T05:51:48.102Z,74.10
2019-01-24T05:52:48.092Z,73.60
2019-01-24T05:53:48.110Z,74.30
2019-01-24T05:54:48.072Z,77.50
2019-01-24T05:55:48.095Z,76.10
2019-01-24T05:56:48.045Z,76.70
2019-01-24T05:57:48.033Z,75.20
2019-01-24T05:58:48.023Z,71.80
2019-01-24T05:59:48.012Z,72.50
2019-01-24T06:00:48.037Z,72.10
2019-01-24T06:01:47.989Z,71.90
2019-01-24T06:02:47.978Z,70.10
2019-01-24T06:03:47.971Z,69.70
2019-01-24T06:04:47.965Z,71.60
2019-01-24T06:05:47.974Z,75.00
2019-01-24T06:06:47.939Z,76.60
2019-01-24T06:07:47.966Z,72.50
2019-01-24T06:08:47.915Z,68.90
2019-01-24T06:09:47.905Z,72.20
2019-01-24T06:10:47.894Z,70.00
2019-01-24T06:11:47.882Z,69.70
2019-01-24T06:12:47.904Z,70.50
2019-01-24T06:13:47.862Z,68.90
2019-01-24T06:14:47.852Z,70.00
2019-01-24T06:15:47.843Z,69.80
2019-01-24T06:16:47.832Z,70.90
2019-01-24T06:17:47.844Z,70.20
2019-01-24T06:18:47.812Z,71.40
2019-01-24T06:19:47.801Z,69.00
2019-01-24T06:20:47.783Z,72.90
2019-01-24T06:21:47.770Z,70.40
2019-01-24T06:22:47.801Z,68.70
2019-01-24T06:23:47.749Z,71.10
2019-01-24T06:24:47.733Z,69.40
2019-01-24T06:25:47.729Z,67.90
2019-01-24T06:26:47.724Z,69.70
2019-01-24T06:27:47.728Z,67.90
2019-01-24T06:28:47.693Z,72.40
2019-01-24T06:29:47.686Z,68.90
2019-01-24T06:30:47.667Z,71.50
2019-01-24T06:31:47.668Z,71.10
2019-01-24T06:32:47.679Z,69.40
2019-01-24T06:33:47.655Z,67.10
2019-01-24T06:34:47.626Z,65.30
2019-01-24T06:35:48.886Z,66.50
2019-01-24T06:36:47.603Z,70.60
2019-01-24T06:37:47.627Z,73.40
2019-01-24T06:38:47.592Z,64.80
2019-01-24T06:39:47.573Z,64.60
2019-01-24T06:40:47.560Z,66.20
2019-01-24T06:41:47.592Z,60.00
2019-01-24T06:42:47.543Z,61.80
2019-01-24T06:43:47.530Z,61.50
2019-01-24T06:44:47.522Z,65.80
2019-01-24T06:45:47.505Z,63.70
2019-01-24T06:46:47.529Z,61.00
2019-01-24T06:47:47.487Z,67.20
2019-01-24T06:48:47.473Z,64.00
2019-01-24T06:49:47.464Z,66.70
2019-01-24T06:50:47.485Z,60.50
2019-01-24T06:51:47.442Z,60.90
2019-01-24T06:52:47.439Z,66.20
2019-01-24T06:53:47.435Z,64.50
2019-01-24T06:54:47.416Z,63.90
2019-01-24T06:55:47.422Z,65.10
2019-01-24T06:56:47.401Z,62.90
2019-01-24T06:57:47.370Z,61.00
2019-01-24T06:58:47.361Z,61.70
2019-01-24T06:59:47.355Z,62.00
2019-01-24T07:00:47.367Z,60.60
2019-01-24T07:01:47.327Z,60.20
2019-01-24T07:02:47.326Z,59.20
2019-01-24T07:03:47.308Z,60.40
2019-01-24T07:04:47.295Z,62.00
2019-01-24T07:05:47.309Z,63.10
2019-01-24T07:06:47.274Z,58.80
2019-01-24T07:07:47.268Z,59.90
2019-01-24T07:08:47.257Z,64.10
2019-01-24T07:09:47.275Z,62.50
2019-01-24T07:10:47.229Z,65.50
2019-01-24T07:11:47.217Z,59.80
2019-01-24T07:12:47.210Z,56.60
2019-01-24T07:13:47.197Z,52.90
2019-01-24T07:14:47.215Z,56.40
2019-01-24T07:15:47.178Z,46.90
2019-01-24T07:16:47.167Z,48.20
2019-01-24T07:17:47.153Z,48.10
2019-01-24T07:18:47.142Z,48.80
2019-01-24T07:19:47.158Z,49.30
2019-01-24T07:20:47.124Z,45.70
2019-01-24T07:21:47.111Z,47.20
2019-01-24T07:22:47.122Z,47.70
2019-01-24T07:23:47.087Z,49.50
2019-01-24T07:24:47.103Z,49.70
2019-01-24T07:25:47.064Z,46.60
2019-01-24T07:26:47.060Z,48.50
2019-01-24T07:27:47.081Z,49.30
2019-01-24T07:28:47.042Z,48.80
2019-01-24T07:29:47.032Z,44.90
2019-01-24T07:30:47.015Z,46.50
2019-01-24T07:31:47.002Z,44.90
2019-01-24T07:32:47.022Z,49.80
2019-01-24T07:33:47.010Z,51.20
2019-01-24T07:34:46.972Z,49.30
2019-01-24T07:35:46.958Z,50.90
2019-01-24T07:36:46.948Z,50.30
2019-01-24T07:37:46.939Z,47.20
2019-01-24T07:38:46.958Z,49.00
2019-01-24T07:39:46.916Z,48.80
2019-01-24T07:40:46.902Z,48.20
2019-01-24T07:41:46.890Z,45.90
2019-01-24T07:42:46.884Z,48.90
2019-01-24T07:43:46.890Z,49.40
2019-01-24T07:44:46.856Z,48.00
2019-01-24T07:45:46.847Z,48.00
2019-01-24T07:46:46.869Z,47.40
2019-01-24T07:47:46.824Z,48.10
2019-01-24T07:48:46.830Z,51.10
2019-01-24T07:49:46.824Z,48.10
2019-01-24T07:50:46.860Z,48.90
2019-01-24T07:51:47.222Z,48.00
2019-01-24T07:52:46.812Z,47.20
2019-01-24T07:53:46.763Z,49.30
2019-01-24T07:54:46.754Z,47.30
2019-01-24T07:55:46.759Z,48.60
2019-01-24T07:56:46.726Z,48.60
2019-01-24T07:57:46.717Z,51.10
2019-01-24T07:58:46.732Z,51.00
2019-01-24T07:59:46.698Z,50.80
2019-01-24T08:00:46.692Z,48.90
2019-01-24T08:01:46.685Z,53.00
2019-01-24T08:02:46.684Z,51.10
2019-01-24T08:03:46.647Z,54.20
2019-01-24T08:04:46.643Z,58.00
2019-01-24T08:05:46.626Z,54.10
2019-01-24T08:06:46.638Z,52.00
2019-01-24T08:07:46.603Z,50.70
2019-01-24T08:08:46.623Z,52.50
2019-01-24T08:09:46.584Z,52.90
2019-01-24T08:10:46.574Z,51.20
2019-01-24T08:11:46.569Z,53.40
2019-01-24T08:12:46.574Z,53.80
2019-01-24T08:13:46.538Z,52.40
2019-01-24T08:14:46.530Z,53.50
2019-01-24T08:15:46.554Z,51.50
2019-01-24T08:16:46.505Z,53.00
2019-01-24T08:17:46.502Z,54.80
2019-01-24T08:18:46.482Z,53.70
2019-01-24T08:19:46.470Z,55.90
2019-01-24T08:20:46.496Z,55.20
2019-01-24T08:21:46.453Z,53.00
2019-01-24T08:22:46.447Z,58.50
2019-01-24T08:23:46.426Z,53.40
2019-01-24T08:24:46.421Z,57.50
2019-01-24T08:25:46.630Z,55.00
2019-01-24T08:26:46.423Z,52.10
2019-01-24T08:27:46.388Z,52.50
2019-01-24T08:28:46.411Z,51.90
2019-01-24T08:29:46.401Z,53.50
2019-01-24T08:30:46.390Z,50.50
2019-01-24T08:31:46.341Z,53.70
2019-01-24T08:32:46.330Z,52.20
2019-01-24T08:33:46.348Z,51.50
2019-01-24T08:34:46.377Z,53.40
2019-01-24T08:35:46.301Z,53.40
2019-01-24T08:36:46.289Z,52.40
2019-01-24T08:37:46.271Z,54.70
2019-01-24T08:38:46.283Z,52.00
2019-01-24T08:39:46.249Z,50.50
2019-01-24T08:40:46.247Z,51.10
2019-01-24T08:41:46.227Z,52.20
2019-01-24T08:42:46.220Z,53.20
2019-01-24T08:43:46.232Z,51.60
2019-01-24T08:44:46.196Z,52.90
2019-01-24T08:45:46.183Z,53.60
2019-01-24T08:46:46.186Z,56.10
2019-01-24T08:47:46.168Z,52.90
2019-01-24T08:48:46.182Z,54.60
2019-01-24T08:49:46.163Z,53.50
2019-01-24T08:50:46.129Z,53.40
2019-01-24T08:51:46.142Z,54.40
2019-01-24T08:52:46.122Z,55.00
2019-01-24T08:53:46.134Z,52.20
2019-01-24T08:54:46.092Z,55.20
2019-01-24T08:55:46.075Z,56.70
2019-01-24T08:56:46.063Z,57.20
2019-01-24T08:57:46.056Z,58.20
2019-01-24T08:58:46.071Z,55.80
2019-01-24T08:59:46.041Z,59.20
2019-01-24T09:00:46.023Z,56.30
2019-01-24T09:01:46.034Z,57.20
2019-01-24T09:02:45.996Z,56.70
2019-01-24T09:03:45.989Z,58.40
2019-01-24T09:04:45.978Z,61.30
2019-01-24T09:05:45.969Z,59.60
2019-01-24T09:06:45.983Z,61.10
2019-01-24T09:07:45.946Z,60.90
2019-01-24T09:08:45.946Z,62.00
2019-01-24T09:09:45.923Z,61.60
2019-01-24T09:10:45.941Z,63.20
2019-01-24T09:11:45.906Z,64.20
2019-01-24T09:12:45.892Z,62.30
2019-01-24T09:13:45.881Z,65.80
2019-01-24T09:14:45.872Z,65.50
2019-01-24T09:15:45.880Z,64.50
2019-01-24T09:16:45.847Z,61.80
2019-01-24T09:17:45.841Z,62.20
2019-01-24T09:18:45.827Z,59.40
2019-01-24T09:19:45.841Z,65.20
2019-01-24T09:20:45.806Z,63.10
2019-01-24T09:21:45.821Z,63.40
2019-01-24T09:22:45.778Z,59.90
2019-01-24T09:23:45.778Z,59.30
2019-01-24T09:24:45.759Z,60.20
2019-01-24T09:25:45.747Z,63.20
2019-01-24T09:26:45.782Z,63.90
2019-01-24T09:27:45.726Z,64.20
2019-01-24T09:28:45.719Z,62.40
2019-01-24T09:29:45.710Z,58.20
2019-01-24T09:30:45.695Z,63.00
2019-01-24T09:31:45.714Z,64.60
2019-01-24T09:32:45.672Z,61.00
2019-01-24T09:33:45.662Z,60.20
2019-01-24T09:34:45.649Z,61.70
2019-01-24T09:35:45.639Z,65.00
2019-01-24T09:36:45.661Z,67.30
2019-01-24T09:37:45.623Z,60.70
2019-01-24T09:38:45.610Z,62.50
2019-01-24T09:39:45.598Z,63.00
2019-01-24T09:40:45.584Z,62.60
2019-01-24T09:41:45.595Z,64.00
2019-01-24T09:42:45.560Z,61.50
2019-01-24T09:43:45.583Z,57.60
2019-01-24T09:44:45.542Z,61.40
2019-01-24T09:45:45.557Z,62.20
2019-01-24T09:46:45.518Z,60.50
2019-01-24T09:47:45.512Z,63.40
2019-01-24T09:48:45.497Z,64.90
2019-01-24T09:49:45.487Z,63.00
2019-01-24T09:50:45.508Z,58.50
2019-01-24T09:51:45.466Z,59.60
2019-01-24T09:52:45.452Z,61.00
2019-01-24T09:53:45.468Z,61.00
2019-01-24T09:54:46.045Z,62.50
2019-01-24T09:55:45.423Z,62.20
2019-01-24T09:56:45.416Z,62.50
2019-01-24T09:57:45.402Z,63.90
2019-01-24T09:58:46.089Z,58.00
2019-01-24T09:59:45.404Z,58.30
2019-01-24T10:00:45.368Z,60.00
2019-01-24T10:01:45.361Z,57.60
2019-01-24T10:02:45.850Z,59.80
2019-01-24T10:03:45.375Z,60.30
2019-01-24T10:04:45.318Z,58.10
2019-01-24T10:05:45.570Z,57.70
2019-01-24T10:06:45.300Z,62.20
2019-01-24T10:07:45.295Z,57.60
2019-01-24T10:08:45.303Z,58.20
2019-01-24T10:09:45.871Z,57.10
2019-01-24T10:10:45.256Z,58.80
2019-01-24T10:11:45.252Z,55.00
2019-01-24T10:12:45.571Z,55.00
2019-01-24T10:13:45.404Z,58.40
2019-01-24T10:14:45.216Z,56.60
2019-01-24T10:15:45.213Z,57.30
2019-01-24T10:16:45.187Z,56.50
2019-01-24T10:17:45.251Z,58.60
2019-01-24T10:18:45.164Z,59.30
2019-01-24T10:19:45.154Z,56.20
2019-01-24T10:20:45.148Z,58.40
2019-01-24T10:21:45.129Z,53.50
2019-01-24T10:22:45.154Z,54.40
2019-01-24T10:23:45.153Z,57.10
2019-01-24T10:24:45.100Z,54.30
2019-01-24T10:25:45.091Z,56.40
2019-01-24T10:26:45.070Z,58.10
2019-01-24T10:27:45.065Z,60.90
2019-01-24T10:28:45.076Z,61.00
2019-01-24T10:29:45.037Z,57.80
2019-01-24T10:30:45.395Z,57.50
2019-01-24T10:31:46.405Z,54.90
2019-01-24T10:32:45.006Z,53.60
2019-01-24T10:33:44.998Z,56.30
2019-01-24T10:34:45.157Z,56.50
2019-01-24T10:35:44.975Z,54.00
2019-01-24T10:36:44.960Z,56.40
2019-01-24T10:37:44.946Z,59.10
2019-01-24T10:38:44.980Z,52.30
2019-01-24T10:39:44.953Z,56.00
2019-01-24T10:40:44.921Z,56.80
2019-01-24T10:41:44.910Z,56.60
2019-01-24T10:42:44.892Z,54.20
2019-01-24T10:43:44.894Z,55.90
2019-01-24T10:44:44.868Z,55.10
2019-01-24T10:45:44.877Z,57.60
2019-01-24T10:46:44.850Z,55.90
2019-01-24T10:47:44.837Z,53.10
2019-01-24T10:48:44.823Z,53.90
2019-01-24T10:49:44.817Z,51.30
2019-01-24T10:50:44.820Z,50.90
2019-01-24T10:51:44.788Z,54.40
2019-01-24T10:52:44.779Z,55.30
2019-01-24T10:53:44.768Z,52.50
2019-01-24T10:54:44.760Z,52.70
2019-01-24T10:55:44.766Z,48.20
2019-01-24T10:56:44.733Z,51.00
2019-01-24T10:57:44.763Z,52.50
2019-01-24T10:58:44.715Z,52.50
2019-01-24T10:59:44.698Z,51.50
2019-01-24T11:00:44.716Z,53.00
2019-01-24T11:01:44.679Z,54.90
2019-01-24T11:02:44.671Z,53.30
2019-01-24T11:03:44.655Z,57.50
2019-01-24T11:04:44.641Z,55.00
2019-01-24T11:05:44.663Z,55.80
2019-01-24T11:06:49.962Z,55.40
2019-01-24T11:07:45.611Z,55.10
2019-01-24T11:08:44.603Z,53.40
2019-01-24T11:09:44.588Z,53.20
2019-01-24T11:10:44.601Z,55.40
2019-01-24T11:11:44.567Z,52.40
2019-01-24T11:12:44.552Z,52.20
2019-01-24T11:13:44.540Z,52.70
2019-01-24T11:14:44.549Z,52.00
2019-01-24T11:15:44.531Z,51.00
2019-01-24T11:16:44.557Z,53.10
2019-01-24T11:17:44.497Z,51.60
2019-01-24T11:18:44.499Z,51.40
2019-01-24T11:19:44.470Z,49.70
2019-01-24T11:20:44.468Z,53.10
2019-01-24T11:21:44.481Z,52.90
2019-01-24T11:22:44.443Z,52.60
2019-01-24T11:23:44.429Z,51.40
2019-01-24T11:24:44.421Z,53.40
2019-01-24T11:25:44.407Z,54.50
2019-01-24T11:26:44.422Z,53.00
2019-01-24T11:27:44.388Z,54.50
2019-01-24T11:28:44.385Z,54.40
2019-01-24T11:29:44.362Z,52.90
2019-01-24T11:30:44.377Z,51.90
2019-01-24T11:31:44.341Z,53.90
2019-01-24T11:32:44.334Z,54.10
2019-01-24T11:33:44.319Z,52.70
2019-01-24T11:34:44.305Z,55.60
2019-01-24T11:35:44.330Z,55.30
2019-01-24T11:36:44.285Z,53.10
2019-01-24T11:37:44.271Z,54.70
2019-01-24T11:38:44.260Z,54.30
2019-01-24T11:39:44.257Z,56.10
2019-01-24T11:40:44.260Z,55.10
2019-01-24T11:41:44.251Z,58.20
2019-01-24T11:42:44.219Z,55.90
2019-01-24T11:43:44.225Z,56.70
2019-01-24T11:44:44.196Z,55.00
2019-01-24T11:45:44.187Z,53.70
2019-01-24T11:46:44.201Z,56.10
2019-01-24T11:47:44.160Z,53.90
2019-01-24T11:48:44.150Z,54.80
2019-01-24T11:49:44.135Z,53.20
2019-01-24T11:50:44.123Z,54.40
2019-01-24T11:51:44.140Z,57.80
2019-01-24T11:52:44.104Z,54.90
2019-01-24T11:53:44.103Z,57.70
2019-01-24T11:54:44.094Z,54.20
2019-01-24T11:55:44.067Z,57.00
2019-01-24T11:56:44.074Z,58.60
2019-01-24T11:57:44.046Z,58.40
2019-01-24T11:58:44.054Z,59.70
2019-01-24T11:59:44.169Z,59.10
2019-01-24T12:00:44.013Z,59.20
2019-01-24T12:01:43.998Z,58.80
2019-01-24T12:02:44.023Z,59.10
2019-01-24T12:03:43.974Z,55.70
2019-01-24T12:04:43.965Z,57.70
2019-01-24T12:05:43.965Z,55.80
2019-01-24T12:06:43.951Z,58.30
2019-01-24T12:07:43.957Z,57.80
2019-01-24T12:08:43.920Z,57.70
2019-01-24T12:09:43.909Z,59.60
2019-01-24T12:10:43.923Z,58.20
2019-01-24T12:11:43.904Z,58.20
2019-01-24T12:12:43.888Z,57.40
2019-01-24T12:13:43.892Z,56.90
2019-01-24T12:14:43.853Z,57.30
2019-01-24T12:15:43.857Z,59.10
2019-01-24T12:16:43.827Z,58.00
2019-01-24T12:17:43.821Z,60.40
2019-01-24T12:18:43.811Z,57.90
2019-01-24T12:19:43.803Z,57.60
2019-01-24T12:20:43.810Z,57.20
2019-01-24T12:21:43.779Z,58.80
2019-01-24T12:22:43.763Z,59.80
2019-01-24T12:23:43.773Z,59.00
2019-01-24T12:24:43.744Z,61.00
2019-01-24T12:25:43.728Z,59.90
2019-01-24T12:26:43.756Z,61.50
2019-01-24T12:27:43.708Z,62.70
2019-01-24T12:28:43.700Z,64.00
2019-01-24T12:29:43.687Z,61.10
2019-01-24T12:30:43.681Z,61.00
2019-01-24T12:31:43.685Z,56.70
2019-01-24T12:32:43.678Z,58.60
2019-01-24T12:33:43.636Z,62.10
2019-01-24T12:34:43.646Z,60.80
2019-01-24T12:35:43.627Z,61.40
2019-01-24T12:36:43.605Z,64.70
2019-01-24T12:37:43.599Z,62.10
2019-01-24T12:38:43.581Z,61.50
2019-01-24T12:39:43.605Z,61.20
2019-01-24T12:40:43.566Z,62.60
2019-01-24T12:41:43.549Z,62.20
2019-01-24T12:42:43.576Z,63.10
2019-01-24T12:43:43.526Z,62.30
2019-01-24T12:44:43.541Z,67.80
2019-01-24T12:45:43.500Z,66.40
2019-01-24T12:46:43.497Z,63.30
2019-01-24T12:47:43.487Z,65.10
2019-01-24T12:48:43.470Z,66.60
2019-01-24T12:49:43.482Z,61.80
2019-01-24T12:50:43.449Z,67.10
2019-01-24T12:51:43.436Z,62.20
2019-01-24T12:52:43.427Z,61.60